Time;durP1;ratioP1;P1;durP2;ratioP2;P2;SDS_P1;SDS_P2;PMS_P1;PMS_P2;Temp;Humidity;BMP_temperature;BMP_pressure;BME280_temperature;BME280_humidity;BME280_pressure;Samples;Min_cycle;Max_cycle;Signal;HPM_P1;HPM_P2
2022/10/16 00:00:54;;;;;;;20.58;4.55;;;12.40;99.90;;;;;;5052464;28;20048;-64
2022/10/16 00:03:21;;;;;;;16.98;4.22;;;12.30;99.90;;;;;;5052129;28;20052;-65
2022/10/16 00:05:58;;;;;;;17.73;4.80;;;12.30;99.90;;;;;;5053032;28;20084;-64
2022/10/16 00:08:25;;;;;;;15.07;3.63;;;12.30;99.90;;;;;;5052335;28;20469;-64
2022/10/16 00:10:52;;;;;;;16.05;4.15;;;12.30;99.90;;;;;;5052482;28;20041;-64
2022/10/16 00:13:20;;;;;;;25.50;5.30;;;12.30;99.90;;;;;;5035604;28;20056;-64
2022/10/16 00:15:47;;;;;;;20.58;3.67;;;12.20;99.90;;;;;;5035782;28;20057;-64
2022/10/16 00:18:14;;;;;;;17.13;5.07;;;12.20;99.90;;;;;;5052848;28;20095;-64
2022/10/16 00:20:41;;;;;;;19.85;5.45;;;12.30;99.90;;;;;;5051840;28;20127;-64
2022/10/16 00:23:10;;;;;;;20.55;5.65;;;12.30;99.90;;;;;;5051655;28;20520;-64
2022/10/16 00:25:37;;;;;;;24.38;3.92;;;12.30;99.90;;;;;;5035622;28;20084;-64
2022/10/16 00:28:04;;;;;;;19.25;5.20;;;12.40;99.90;;;;;;5052921;28;20469;-64
2022/10/16 00:30:31;;;;;;;18.20;5.57;;;12.40;99.90;;;;;;5053243;28;20044;-64
2022/10/16 00:32:57;;;;;;;23.45;5.75;;;12.40;99.90;;;;;;5052703;28;20052;-64
2022/10/16 00:35:24;;;;;;;20.90;6.10;;;12.40;99.90;;;;;;5051674;28;20036;-64
2022/10/16 00:37:51;;;;;;;17.85;4.72;;;12.40;99.90;;;;;;5052580;28;20368;-64
2022/10/16 00:40:18;;;;;;;20.17;4.88;;;12.40;99.90;;;;;;5052391;28;20112;-64
2022/10/16 00:42:45;;;;;;;13.63;5.05;;;12.30;99.90;;;;;;5052784;28;20090;-64
2022/10/16 00:45:12;;;;;;;14.75;3.95;;;12.30;99.90;;;;;;5051802;28;20045;-64
2022/10/16 00:47:49;;;;;;;23.00;4.82;;;12.20;99.90;;;;;;5035337;28;20049;-64
2022/10/16 00:50:32;;;;;;;17.67;5.55;;;12.20;99.90;;;;;;5052302;28;20044;-64
2022/10/16 00:53:00;;;;;;;20.05;5.25;;;12.20;99.90;;;;;;5051878;28;20075;-64
2022/10/16 00:55:28;;;;;;;18.48;4.75;;;12.10;99.90;;;;;;5052273;28;20045;-64
2022/10/16 00:57:55;;;;;;;16.55;5.00;;;12.10;99.90;;;;;;5053458;28;20067;-64
2022/10/16 01:00:24;;;;;;;15.35;4.45;;;12.10;99.90;;;;;;5052253;28;20072;-64
2022/10/16 01:02:55;;;;;;;22.35;5.38;;;12.10;99.90;;;;;;5051831;28;20385;-64
2022/10/16 01:05:23;;;;;;;16.58;5.57;;;12.10;99.90;;;;;;5052627;28;20037;-64
2022/10/16 01:07:57;;;;;;;16.45;3.95;;;12.10;99.90;;;;;;5051709;28;20130;-64
2022/10/16 01:10:45;;;;;;;12.88;3.88;;;12.10;99.90;;;;;;5051432;28;20041;-64
2022/10/16 01:13:21;;;;;;;13.75;4.43;;;12.10;99.90;;;;;;5051817;28;20044;-64
2022/10/16 01:15:57;;;;;;;12.55;3.80;;;12.10;99.90;;;;;;5051787;28;20107;-64
2022/10/16 01:18:37;;;;;;;16.42;4.35;;;12.00;99.90;;;;;;5052460;28;20049;-64
2022/10/16 01:21:06;;;;;;;14.43;4.40;;;12.10;99.90;;;;;;5052105;28;20071;-64
2022/10/16 01:23:51;;;;;;;17.08;4.22;;;12.10;99.90;;;;;;5051825;28;20530;-64
2022/10/16 01:26:38;;;;;;;15.43;4.03;;;12.10;99.90;;;;;;5051392;28;20491;-64
2022/10/16 01:29:18;;;;;;;14.70;4.20;;;12.10;99.90;;;;;;5034970;28;20064;-64
2022/10/16 01:31:49;;;;;;;16.23;3.92;;;12.10;99.90;;;;;;5039359;28;20559;-64
2022/10/16 01:34:22;;;;;;;21.05;5.07;;;12.10;99.90;;;;;;5055994;28;20079;-64
2022/10/16 01:36:55;;;;;;;12.02;3.53;;;12.00;99.90;;;;;;5054749;28;20098;-64
2022/10/16 01:39:24;;;;;;;12.20;4.28;;;12.00;99.90;;;;;;5054818;28;20041;-64
2022/10/16 01:41:57;;;;;;;14.55;4.35;;;12.00;99.90;;;;;;5055014;28;20487;-64
2022/10/16 01:44:26;;;;;;;15.07;3.80;;;12.00;99.90;;;;;;5055269;28;20380;-64
2022/10/16 01:46:53;;;;;;;24.90;4.60;;;12.00;99.90;;;;;;5038132;28;20087;-64
2022/10/16 01:49:21;;;;;;;16.75;5.32;;;12.00;99.90;;;;;;5054623;28;20041;-64
2022/10/16 01:51:49;;;;;;;20.42;5.22;;;12.00;99.90;;;;;;5054156;28;20488;-64
2022/10/16 01:54:16;;;;;;;12.75;3.72;;;12.00;99.90;;;;;;5054433;28;20048;-64
2022/10/16 01:56:43;;;;;;;14.70;4.22;;;12.00;99.90;;;;;;5054193;28;20045;-64
2022/10/16 01:59:12;;;;;;;12.25;3.45;;;12.10;99.90;;;;;;5054070;28;20464;-64
2022/10/16 02:01:41;;;;;;;18.40;3.38;;;12.10;99.90;;;;;;5053999;28;20048;-64
2022/10/16 02:04:28;;;;;;;;;;;12.20;99.90;;;;;;5054635;28;20075;-64
2022/10/16 02:06:55;;;;;;;14.68;3.85;;;12.30;99.90;;;;;;5058416;28;20066;-64
2022/10/16 02:09:22;;;;;;;17.73;5.43;;;12.40;99.90;;;;;;5054166;28;20041;-64
2022/10/16 02:11:49;;;;;;;15.38;3.78;;;12.40;99.90;;;;;;5055729;28;20111;-64
2022/10/16 02:14:16;;;;;;;16.58;4.25;;;12.40;99.90;;;;;;5054956;28;20044;-64
2022/10/16 02:16:44;;;;;;;16.48;4.50;;;12.50;99.90;;;;;;5053898;28;20048;-64
2022/10/16 02:19:14;;;;;;;16.60;4.10;;;12.40;99.90;;;;;;5056149;28;20045;-64
2022/10/16 02:21:49;;;;;;;14.30;3.55;;;12.40;99.90;;;;;;5053661;28;20049;-64
2022/10/16 02:24:26;;;;;;;21.38;5.10;;;12.40;99.90;;;;;;5055020;28;20142;-64
2022/10/16 02:26:58;;;;;;;16.63;3.50;;;12.40;99.90;;;;;;5053927;28;20098;-64
2022/10/16 02:29:25;;;;;;;14.25;3.83;;;12.40;99.90;;;;;;5054104;28;20523;-64
2022/10/16 02:32:00;;;;;;;15.80;4.47;;;12.40;99.90;;;;;;5054001;28;20041;-64
2022/10/16 02:34:27;;;;;;;12.50;3.72;;;12.30;99.90;;;;;;5053705;28;20044;-64
2022/10/16 02:36:54;;;;;;;13.27;2.55;;;12.20;99.90;;;;;;5053686;28;20122;-64
2022/10/16 02:39:21;;;;;;;13.02;3.40;;;12.20;99.90;;;;;;5053502;28;20048;-64
2022/10/16 02:41:48;;;;;;;15.93;5.20;;;12.10;99.90;;;;;;5037500;28;20053;-64
2022/10/16 02:44:15;;;;;;;13.15;3.75;;;12.10;99.90;;;;;;5053458;28;20098;-64
2022/10/16 02:46:42;;;;;;;15.95;3.90;;;12.00;99.90;;;;;;5055436;28;20044;-64
2022/10/16 02:49:09;;;;;;;15.43;3.47;;;12.00;99.90;;;;;;5054555;28;20042;-64
2022/10/16 02:51:36;;;;;;;8.80;3.08;;;12.00;99.90;;;;;;5053292;28;20087;-64
2022/10/16 02:54:03;;;;;;;17.13;3.90;;;11.90;99.90;;;;;;5052871;28;20049;-64
2022/10/16 02:56:30;;;;;;;21.48;3.35;;;11.90;99.90;;;;;;5036434;28;20464;-64
2022/10/16 02:58:57;;;;;;;14.48;4.10;;;11.90;99.90;;;;;;5053594;28;20049;-64
2022/10/16 03:01:24;;;;;;;21.55;5.40;;;11.80;99.90;;;;;;5036624;28;20045;-64
2022/10/16 03:03:51;;;;;;;14.98;3.88;;;11.80;99.90;;;;;;5053024;28;20041;-64
2022/10/16 03:06:18;;;;;;;19.23;4.32;;;11.70;99.90;;;;;;5052470;28;20057;-64
2022/10/16 03:08:45;;;;;;;14.45;3.25;;;11.70;99.90;;;;;;5054593;28;20466;-64
2022/10/16 03:11:12;;;;;;;18.40;3.58;;;11.70;99.90;;;;;;5037244;28;20045;-64
2022/10/16 03:13:38;;;;;;;11.65;3.50;;;11.60;99.90;;;;;;5036965;28;20048;-64
2022/10/16 03:16:05;;;;;;;18.00;4.32;;;11.60;99.90;;;;;;5054201;28;20041;-64
2022/10/16 03:18:32;;;;;;;8.20;2.90;;;11.60;99.90;;;;;;5054851;28;20098;-64
2022/10/16 03:20:59;;;;;;;11.43;2.75;;;11.60;99.90;;;;;;5054135;28;20049;-64
2022/10/16 03:23:26;;;;;;;15.38;2.67;;;11.50;99.90;;;;;;5054202;28;20094;-64
2022/10/16 03:25:53;;;;;;;34.10;4.60;;;11.50;99.90;;;;;;5054722;28;20099;-64
2022/10/16 03:28:20;;;;;;;17.10;4.13;;;11.50;99.90;;;;;;5053824;28;20041;-64
2022/10/16 03:30:47;;;;;;;11.95;3.25;;;11.40;99.90;;;;;;5052636;28;20040;-64
2022/10/16 03:33:14;;;;;;;15.05;3.78;;;11.40;99.90;;;;;;5053225;28;20083;-64
2022/10/16 03:35:41;;;;;;;12.18;3.90;;;11.40;99.90;;;;;;5054087;28;20041;-64
2022/10/16 03:38:08;;;;;;;10.68;2.60;;;11.40;99.90;;;;;;5054490;28;20423;-64
2022/10/16 03:40:35;;;;;;;12.45;3.30;;;11.30;99.90;;;;;;5053072;28;20124;-64
2022/10/16 03:43:01;;;;;;;16.85;3.83;;;11.40;99.90;;;;;;5053348;28;20049;-64
2022/10/16 03:45:28;;;;;;;10.55;2.92;;;11.40;99.90;;;;;;5054009;28;20102;-64
2022/10/16 03:47:55;;;;;;;13.85;2.95;;;11.40;99.90;;;;;;5053961;28;20037;-64
2022/10/16 03:50:22;;;;;;;12.70;3.38;;;11.40;99.90;;;;;;5052021;28;20471;-64
2022/10/16 03:52:50;;;;;;;15.35;2.83;;;11.40;99.90;;;;;;5051789;28;20037;-64
2022/10/16 03:55:17;;;;;;;9.82;3.10;;;11.40;99.90;;;;;;5052261;28;20380;-64
2022/10/16 03:57:44;;;;;;;18.60;4.10;;;11.50;99.90;;;;;;5053195;28;20041;-64
2022/10/16 04:00:11;;;;;;;13.18;3.58;;;11.40;99.90;;;;;;5051851;28;20535;-64
2022/10/16 04:02:38;;;;;;;11.20;3.50;;;11.40;99.90;;;;;;5053410;28;20443;-64
2022/10/16 04:05:06;;;;;;;16.42;3.90;;;11.40;99.90;;;;;;5051713;28;20123;-64
2022/10/16 04:07:33;;;;;;;24.63;3.97;;;11.50;99.90;;;;;;5051724;28;20052;-64
2022/10/16 04:10:00;;;;;;;20.50;3.47;;;11.50;99.90;;;;;;5051929;28;20087;-64
2022/10/16 04:12:27;;;;;;;15.73;3.08;;;11.50;99.90;;;;;;5035458;28;20049;-64
2022/10/16 04:14:54;;;;;;;11.52;3.05;;;11.40;99.90;;;;;;5052960;28;20491;-64
2022/10/16 04:17:21;;;;;;;15.52;3.63;;;11.50;99.90;;;;;;5035773;28;20037;-64
2022/10/16 04:19:48;;;;;;;13.57;4.15;;;11.50;99.90;;;;;;5052900;28;20049;-64
2022/10/16 04:22:15;;;;;;;11.93;3.60;;;11.50;99.90;;;;;;5051693;28;20041;-64
2022/10/16 04:24:42;;;;;;;16.17;4.07;;;11.40;99.90;;;;;;5035651;28;20049;-64
2022/10/16 04:27:08;;;;;;;13.63;3.65;;;11.50;99.90;;;;;;5051580;28;20461;-64
2022/10/16 04:29:37;;;;;;;18.08;3.20;;;11.40;99.90;;;;;;5051315;28;20048;-64
2022/10/16 04:32:04;;;;;;;17.35;5.13;;;11.40;99.90;;;;;;5052824;28;20071;-64
2022/10/16 04:34:31;;;;;;;21.60;3.85;;;11.40;99.90;;;;;;5051668;28;20076;-64
2022/10/16 04:36:57;;;;;;;17.35;4.82;;;11.40;99.90;;;;;;5052757;28;20045;-64
2022/10/16 04:39:24;;;;;;;15.90;4.75;;;11.40;99.90;;;;;;5053497;28;20147;-64
2022/10/16 04:41:51;;;;;;;13.27;2.88;;;11.40;99.90;;;;;;5052714;28;20079;-64
2022/10/16 04:44:18;;;;;;;19.35;3.95;;;11.40;99.90;;;;;;5035143;28;20129;-65
2022/10/16 04:46:45;;;;;;;19.88;3.90;;;11.40;99.90;;;;;;5053367;28;20049;-64
2022/10/16 04:49:12;;;;;;;16.65;4.22;;;11.40;99.90;;;;;;5034510;28;20052;-64
2022/10/16 04:51:39;;;;;;;19.23;3.75;;;11.40;99.90;;;;;;5052340;28;20477;-64
2022/10/16 04:54:05;;;;;;;13.70;3.88;;;11.30;99.90;;;;;;5052872;28;20041;-64
2022/10/16 04:56:32;;;;;;;22.45;4.47;;;11.30;99.90;;;;;;5052796;28;20095;-64
2022/10/16 04:58:59;;;;;;;16.55;5.10;;;11.30;99.90;;;;;;5052738;28;20496;-64
2022/10/16 05:01:26;;;;;;;12.63;3.47;;;11.30;99.90;;;;;;5034491;28;20079;-64
2022/10/16 05:03:53;;;;;;;17.77;5.07;;;11.20;99.90;;;;;;5051714;28;20049;-64
2022/10/16 05:06:20;;;;;;;13.85;3.60;;;11.20;99.90;;;;;;5054712;28;20102;-64
2022/10/16 05:08:47;;;;;;;12.73;4.72;;;11.20;99.90;;;;;;5056813;28;20037;-64
2022/10/16 05:11:14;;;;;;;16.92;5.10;;;11.20;99.90;;;;;;5055578;28;20377;-64
2022/10/16 05:13:41;;;;;;;11.43;2.83;;;11.10;99.90;;;;;;5055905;28;20122;-64
2022/10/16 05:16:07;;;;;;;15.52;3.35;;;11.10;99.90;;;;;;5055055;28;20103;-64
2022/10/16 05:18:34;;;;;;;17.25;3.50;;;11.10;99.90;;;;;;5038763;28;20057;-64
2022/10/16 05:21:01;;;;;;;13.52;4.18;;;11.10;99.90;;;;;;5054774;28;20075;-64
2022/10/16 05:23:28;;;;;;;12.73;3.17;;;11.10;99.90;;;;;;5056625;28;20049;-64
2022/10/16 05:25:57;;;;;;;11.23;3.50;;;11.00;99.90;;;;;;5038028;28;20542;-64
2022/10/16 05:28:30;;;;;;;17.98;3.78;;;11.00;99.90;;;;;;5054646;28;20079;-64
2022/10/16 05:30:57;;;;;;;15.32;3.33;;;11.00;99.90;;;;;;5055474;28;20437;-64
2022/10/16 05:33:24;;;;;;;14.90;3.17;;;11.00;99.90;;;;;;5055069;28;20045;-64
2022/10/16 05:35:51;;;;;;;12.25;3.92;;;11.00;99.90;;;;;;5055459;28;20182;-64
2022/10/16 05:38:18;;;;;;;14.38;3.08;;;11.00;99.90;;;;;;5055724;28;20051;-64
2022/10/16 05:40:51;;;;;;;12.10;3.42;;;11.00;99.90;;;;;;5056077;28;20052;-64
2022/10/16 05:43:18;;;;;;;12.15;3.50;;;11.00;99.90;;;;;;5056129;28;20423;-64
2022/10/16 05:45:52;;;;;;;13.32;3.70;;;11.00;99.90;;;;;;5056415;28;20045;-64
2022/10/16 05:48:19;;;;;;;14.38;3.28;;;11.00;99.90;;;;;;5054222;28;20159;-64
2022/10/16 05:50:46;;;;;;;19.55;4.68;;;11.00;99.90;;;;;;5055226;28;20079;-64
2022/10/16 05:53:13;;;;;;;15.65;3.03;;;11.00;99.90;;;;;;5055234;28;20091;-64
2022/10/16 05:55:40;;;;;;;17.90;4.25;;;10.90;99.90;;;;;;5053807;28;20080;-64
2022/10/16 05:58:07;;;;;;;22.00;3.72;;;10.90;99.90;;;;;;5037286;28;20049;-64
2022/10/16 06:00:34;;;;;;;14.65;3.83;;;10.90;99.90;;;;;;5053851;28;20053;-64
2022/10/16 06:03:02;;;;;;;16.30;3.95;;;10.90;99.90;;;;;;5053805;28;20076;-64
2022/10/16 06:05:29;;;;;;;12.00;3.38;;;10.90;99.90;;;;;;5055035;28;20437;-64
2022/10/16 06:07:56;;;;;;;11.18;3.03;;;10.80;99.90;;;;;;5053958;28;20053;-64
2022/10/16 06:10:23;;;;;;;15.50;3.67;;;10.80;99.90;;;;;;5054003;28;20053;-64
2022/10/16 06:12:49;;;;;;;12.02;4.28;;;10.80;99.90;;;;;;5054893;28;20095;-64
2022/10/16 06:15:16;;;;;;;12.50;3.33;;;10.80;99.90;;;;;;5053240;28;20468;-64
2022/10/16 06:17:43;;;;;;;14.38;4.60;;;10.90;99.90;;;;;;5054790;28;20041;-64
2022/10/16 06:20:10;;;;;;;13.27;3.78;;;10.90;99.90;;;;;;5055180;28;20433;-64
2022/10/16 06:22:37;;;;;;;12.32;3.42;;;10.90;99.90;;;;;;5053891;28;20045;-64
2022/10/16 06:25:04;;;;;;;16.35;3.90;;;10.80;99.90;;;;;;5054197;28;20072;-64
2022/10/16 06:27:31;;;;;;;11.07;3.08;;;10.80;99.90;;;;;;5053912;28;20461;-64
2022/10/16 06:29:58;;;;;;;14.00;3.03;;;10.80;99.90;;;;;;5054810;28;20041;-64
2022/10/16 06:32:24;;;;;;;13.80;3.72;;;10.80;99.90;;;;;;5055235;28;20048;-64
2022/10/16 06:34:51;;;;;;;14.40;3.90;;;10.80;99.90;;;;;;5054256;28;20045;-64
2022/10/16 06:37:18;;;;;;;16.88;4.30;;;10.80;99.90;;;;;;5054464;28;20103;-64
2022/10/16 06:39:45;;;;;;;15.77;4.28;;;10.70;99.90;;;;;;5054665;28;20076;-64
2022/10/16 06:42:12;;;;;;;10.98;3.55;;;10.70;99.90;;;;;;5053652;28;20049;-64
2022/10/16 06:44:39;;;;;;;15.25;5.72;;;10.70;99.90;;;;;;5054742;28;20454;-64
2022/10/16 06:47:05;;;;;;;16.73;3.45;;;10.70;99.90;;;;;;5054615;28;20111;-64
2022/10/16 06:49:32;;;;;;;12.30;3.50;;;10.70;99.90;;;;;;5054948;28;20048;-65
2022/10/16 06:51:59;;;;;;;68.18;45.00;;;10.70;99.90;;;;;;5037144;28;20056;-64
2022/10/16 06:54:26;;;;;;;18.90;5.70;;;10.70;99.90;;;;;;5054587;28;20048;-65
2022/10/16 06:56:54;;;;;;;12.07;4.20;;;10.80;99.90;;;;;;5053450;28;20119;-64
2022/10/16 06:59:21;;;;;;;21.15;4.30;;;10.80;99.90;;;;;;5036775;28;20197;-64
2022/10/16 07:01:48;;;;;;;9.30;3.35;;;10.80;99.90;;;;;;5053750;28;20094;-64
2022/10/16 07:04:15;;;;;;;21.40;4.97;;;10.70;99.90;;;;;;5053168;28;20380;-64
2022/10/16 07:06:42;;;;;;;20.05;4.38;;;10.70;99.90;;;;;;5054563;28;20049;-64
2022/10/16 07:09:09;;;;;;;13.70;3.63;;;10.70;99.90;;;;;;5055126;28;20361;-64
2022/10/16 07:11:37;;;;;;;14.20;3.38;;;10.70;99.90;;;;;;5053297;28;20048;-64
2022/10/16 07:14:04;;;;;;;12.88;3.10;;;10.70;99.90;;;;;;5052601;28;20044;-67
2022/10/16 07:16:32;;;;;;;14.30;3.33;;;10.70;99.90;;;;;;5052688;28;20041;-64
2022/10/16 07:19:00;;;;;;;16.23;5.53;;;10.70;99.90;;;;;;5053947;28;20072;-64
2022/10/16 07:21:35;;;;;;;14.65;4.13;;;10.70;99.90;;;;;;5052734;28;20052;-65
2022/10/16 07:24:03;;;;;;;14.38;3.25;;;10.70;99.90;;;;;;5052690;28;20061;-64
2022/10/16 07:26:30;;;;;;;16.45;3.47;;;10.70;99.90;;;;;;5035599;28;20377;-64
2022/10/16 07:28:57;;;;;;;19.85;4.25;;;10.80;99.90;;;;;;5051573;28;20067;-64
2022/10/16 07:31:25;;;;;;;15.00;4.20;;;10.80;99.90;;;;;;5053555;28;20365;-64
2022/10/16 07:33:51;;;;;;;12.13;2.78;;;10.80;99.90;;;;;;5053590;28;20041;-64
2022/10/16 07:36:19;;;;;;;14.80;3.83;;;10.80;99.90;;;;;;5036267;28;20041;-64
2022/10/16 07:38:46;;;;;;;12.25;2.83;;;10.80;99.90;;;;;;5053411;28;20044;-64
2022/10/16 07:41:15;;;;;;;16.23;5.05;;;10.90;99.90;;;;;;5035641;28;20409;-64
2022/10/16 07:43:46;;;;;;;20.50;4.70;;;10.90;99.90;;;;;;5052808;28;20212;-64
2022/10/16 07:46:13;;;;;;;14.02;3.83;;;11.00;99.90;;;;;;5036386;28;20049;-64
2022/10/16 07:48:40;;;;;;;13.40;4.47;;;11.00;99.90;;;;;;5052024;28;20049;-64
2022/10/16 07:51:07;;;;;;;18.92;4.25;;;11.00;99.90;;;;;;5052217;28;20095;-64
2022/10/16 07:53:34;;;;;;;13.88;3.33;;;11.00;99.90;;;;;;5052506;28;20126;-64
2022/10/16 07:56:02;;;;;;;16.38;4.15;;;11.10;99.90;;;;;;5052185;28;20106;-64
2022/10/16 07:58:29;;;;;;;15.70;4.35;;;11.10;99.90;;;;;;5053633;28;20041;-64
2022/10/16 08:00:57;;;;;;;11.82;3.80;;;11.10;99.90;;;;;;5051784;28;20068;-64
2022/10/16 08:03:25;;;;;;;22.35;3.60;;;11.10;99.90;;;;;;5035628;28;20098;-64
2022/10/16 08:05:51;;;;;;;23.60;4.13;;;11.10;99.90;;;;;;5052278;28;20094;-64
2022/10/16 08:08:18;;;;;;;17.83;4.20;;;11.20;99.90;;;;;;5052294;28;20045;-64
2022/10/16 08:10:45;;;;;;;15.93;3.58;;;11.20;99.90;;;;;;5051949;28;20437;-64
2022/10/16 08:13:14;;;;;;;17.02;4.13;;;11.30;99.90;;;;;;5051589;28;20041;-64
2022/10/16 08:15:42;;;;;;;12.05;3.45;;;11.40;99.90;;;;;;5052143;28;20044;-64
2022/10/16 08:18:11;;;;;;;17.35;4.20;;;11.50;99.90;;;;;;5052854;28;20049;-64
2022/10/16 08:20:38;;;;;;;15.73;3.28;;;11.60;99.90;;;;;;5051887;28;20045;-64
2022/10/16 08:23:05;;;;;;;12.63;3.38;;;11.70;99.90;;;;;;5051768;28;20041;-64
2022/10/16 08:25:34;;;;;;;12.57;3.35;;;11.70;99.90;;;;;;5051703;28;20041;-64
2022/10/16 08:28:03;;;;;;;11.05;3.28;;;11.80;99.90;;;;;;5051221;28;20045;-66
2022/10/16 08:30:30;;;;;;;191.00;141.05;;;11.90;99.90;;;;;;5051727;28;20040;-63
2022/10/16 08:32:58;;;;;;;67.10;47.28;;;12.00;99.90;;;;;;5051500;28;20492;-64
2022/10/16 08:35:24;;;;;;;35.47;22.30;;;12.10;99.90;;;;;;5051980;28;20464;-64
2022/10/16 08:37:51;;;;;;;22.40;11.80;;;12.10;99.90;;;;;;5051785;28;20103;-65
2022/10/16 08:40:32;;;;;;;19.77;6.55;;;12.10;99.90;;;;;;5051846;28;20041;-64
2022/10/16 08:43:11;;;;;;;17.30;6.07;;;12.10;99.90;;;;;;5035991;28;20049;-64
2022/10/16 08:46:20;;;;;;;13.30;4.90;;;12.10;99.90;;;;;;5053619;28;20045;-64
2022/10/16 08:48:48;;;;;;;;;;;12.20;99.90;;;;;;5052517;28;20044;-64
2022/10/16 08:51:29;;;;;;;16.65;3.38;;;12.20;99.90;;;;;;5084738;28;19916;-64
2022/10/16 08:53:57;;;;;;;17.63;4.07;;;12.30;99.90;;;;;;5051596;28;20538;-64
2022/10/16 08:56:25;;;;;;;11.90;3.55;;;12.30;99.90;;;;;;5035354;28;20056;-64
2022/10/16 08:58:52;;;;;;;16.63;3.63;;;12.30;99.90;;;;;;5051736;28;20041;-63
2022/10/16 09:01:46;;;;;;;12.00;3.03;;;12.40;99.90;;;;;;5035666;28;20102;-62
2022/10/16 09:04:25;;;;;;;12.75;3.33;;;12.40;99.90;;;;;;5051435;28;20428;-65
2022/10/16 09:07:04;;;;;;;12.17;4.23;;;12.40;99.90;;;;;;5052586;28;20049;-65
2022/10/16 09:09:41;;;;;;;14.80;3.25;;;12.50;99.90;;;;;;5035284;28;20657;-65
2022/10/16 09:12:19;;;;;;;21.48;3.83;;;12.50;99.90;;;;;;5035025;28;20041;-65
2022/10/16 09:15:04;;;;;;;15.82;3.55;;;12.50;99.90;;;;;;5052017;28;20037;-65
2022/10/16 09:17:44;;;;;;;12.27;3.75;;;12.60;99.90;;;;;;5053068;28;20465;-65
2022/10/16 09:20:18;;;;;;;;;;;12.60;99.90;;;;;;5051925;28;20045;-65
2022/10/16 09:22:45;;;;;;;12.02;3.75;;;12.70;99.90;;;;;;5067304;28;20240;-65
2022/10/16 09:25:17;;;;;;;15.38;3.92;;;12.70;99.90;;;;;;5035340;28;20048;-64
2022/10/16 09:27:46;;;;;;;12.73;4.05;;;12.80;99.90;;;;;;5052110;28;20391;-64
2022/10/16 09:30:14;;;;;;;12.55;3.45;;;12.80;99.90;;;;;;5050803;28;20460;-64
2022/10/16 09:32:41;;;;;;;34.78;22.83;;;12.90;99.90;;;;;;5050976;28;20075;-70
2022/10/16 09:35:24;;;;;;;61.58;32.17;;;12.90;99.90;;;;;;5067354;28;20094;-65
2022/10/16 09:37:51;;;;;;;16.20;5.88;;;13.00;99.90;;;;;;5068855;28;20092;-67
2022/10/16 09:40:35;;;;;;;12.82;3.58;;;13.00;99.90;;;;;;5050969;28;20476;-65
2022/10/16 09:43:22;;;;;;;17.33;5.22;;;13.00;99.90;;;;;;5051299;28;20468;-63
2022/10/16 09:45:56;;;;;;;12.80;4.10;;;13.10;99.90;;;;;;5034652;28;20041;-66
2022/10/16 09:48:23;;;;;;;63.97;44.00;;;13.20;99.90;;;;;;5050759;28;20037;-73
2022/10/16 09:51:00;;;;;;;27.92;10.13;;;13.20;99.90;;;;;;5068362;28;20053;-65
2022/10/16 09:53:44;;;;;;;13.18;4.25;;;13.20;99.90;;;;;;5054547;28;20041;-65
2022/10/16 09:56:15;;;;;;;14.30;4.57;;;13.40;99.90;;;;;;5055515;28;20114;-65
2022/10/16 09:58:44;;;;;;;12.95;3.55;;;13.30;99.90;;;;;;5056387;28;20049;-64
2022/10/16 10:01:13;;;;;;;11.48;3.28;;;13.40;99.90;;;;;;5038094;28;20060;-65
2022/10/16 10:03:41;;;;;;;11.60;3.15;;;13.50;99.90;;;;;;5054367;28;20468;-66
2022/10/16 10:06:28;;;;;;;7.25;2.97;;;13.50;99.90;;;;;;5037917;28;20475;-64
2022/10/16 10:08:56;;;;;;;12.63;3.38;;;13.60;99.90;;;;;;5054882;28;20420;-66
2022/10/16 10:11:42;;;;;;;154.05;136.50;;;13.60;99.90;;;;;;5054729;28;20052;-64
2022/10/16 10:14:17;;;;;;;235.57;204.85;;;13.70;99.90;;;;;;5055348;28;20087;-65
2022/10/16 10:16:44;;;;;;;34.70;23.45;;;13.80;99.90;;;;;;5070802;28;20483;-64
2022/10/16 10:19:18;;;;;;;17.88;9.73;;;14.00;99.90;;;;;;5054344;28;20052;-65
2022/10/16 10:21:48;;;;;;;14.65;4.93;;;14.20;99.90;;;;;;5055385;28;20136;-64
2022/10/16 10:24:16;;;;;;;10.20;3.10;;;14.30;99.90;;;;;;5054407;28;20438;-64
2022/10/16 10:27:04;;;;;;;13.05;3.47;;;14.40;99.90;;;;;;5053475;28;20083;-64
2022/10/16 10:29:44;;;;;;;10.20;2.95;;;14.60;99.90;;;;;;5054510;28;20049;-65
2022/10/16 10:32:30;;;;;;;12.07;3.10;;;14.80;99.90;;;;;;5055626;28;20465;-66
2022/10/16 10:35:11;;;;;;;10.60;2.25;;;15.00;99.90;;;;;;5056106;28;20044;-65
2022/10/16 10:37:51;;;;;;;89.75;70.03;;;15.10;99.90;;;;;;5053429;28;20049;-71
2022/10/16 10:40:28;;;;;;;18.48;9.32;;;15.20;99.90;;;;;;5053611;28;20041;-66
2022/10/16 10:43:10;;;;;;;9.90;4.22;;;15.30;99.90;;;;;;5054381;28;20041;-65
2022/10/16 10:45:46;;;;;;;12.10;3.45;;;15.40;99.90;;;;;;5054015;28;20044;-66
2022/10/16 10:48:31;;;;;;;15.73;3.78;;;15.50;99.90;;;;;;5053142;28;20132;-69
2022/10/16 10:51:03;;;;;;;20.13;14.45;;;15.60;99.90;;;;;;5055073;28;20114;-71
2022/10/16 10:53:38;;;;;;;22.75;8.88;;;15.70;99.90;;;;;;5053881;28;20041;-65
2022/10/16 10:56:17;;;;;;;8.80;3.55;;;15.80;99.90;;;;;;5054241;28;20041;-64
2022/10/16 10:59:07;;;;;;;12.73;5.05;;;15.80;99.90;;;;;;5055283;28;20052;-63
2022/10/16 11:02:00;;;;;;;39.03;18.50;;;15.90;99.90;;;;;;5054486;28;20045;-69
2022/10/16 11:04:35;;;;;;;143.60;98.05;;;16.10;99.90;;;;;;5054073;28;20037;-68
2022/10/16 11:07:05;;;;;;;93.20;82.93;;;16.10;99.90;;;;;;5054247;28;20053;-65
2022/10/16 11:09:49;;;;;;;31.55;24.00;;;16.20;99.90;;;;;;5069620;28;20044;-65
2022/10/16 11:12:18;;;;;;;16.95;10.00;;;16.10;99.90;;;;;;5052664;28;20048;-66
2022/10/16 11:15:14;;;;;;;10.95;4.75;;;16.20;99.90;;;;;;5069283;28;20045;-66
2022/10/16 11:17:44;;;;;;;9.15;3.03;;;16.10;99.90;;;;;;5053739;28;20384;-66
2022/10/16 11:20:37;;;;;;;16.95;3.58;;;16.20;99.90;;;;;;5052854;28;20480;-66
2022/10/16 11:23:18;;;;;;;8.52;2.53;;;16.20;99.90;;;;;;5053370;28;20099;-66
2022/10/16 11:25:45;;;;;;;10.98;2.47;;;16.30;99.90;;;;;;5036233;28;20055;-66
2022/10/16 11:28:27;;;;;;;8.00;2.38;;;16.30;99.90;;;;;;5052739;28;20091;-66
2022/10/16 11:31:03;;;;;;;15.73;3.88;;;16.50;99.90;;;;;;5053044;28;20384;-66
2022/10/16 11:33:40;;;;;;;11.70;3.53;;;16.60;99.90;;;;;;5036961;28;20098;-66
2022/10/16 11:36:19;;;;;;;9.80;3.65;;;16.60;99.90;;;;;;5052977;28;20461;-66
2022/10/16 11:39:01;;;;;;;9.70;2.80;;;16.70;99.90;;;;;;5035673;28;20098;-65
2022/10/16 11:41:35;;;;;;;12.40;3.72;;;16.70;99.90;;;;;;5052960;28;20052;-65
2022/10/16 11:44:05;;;;;;;11.00;3.55;;;16.70;99.90;;;;;;5053422;28;20048;-65
2022/10/16 11:46:32;;;;;;;9.50;3.25;;;16.70;99.90;;;;;;5053581;28;20045;-65
2022/10/16 11:48:59;;;;;;;13.77;3.70;;;16.80;99.90;;;;;;5052231;28;20049;-65
2022/10/16 11:51:40;;;;;;;12.18;3.17;;;16.80;99.90;;;;;;5052401;28;20075;-64
2022/10/16 11:54:21;;;;;;;15.57;3.58;;;16.90;99.90;;;;;;5052238;28;20048;-64
2022/10/16 11:56:50;;;;;;;14.30;3.10;;;17.00;99.90;;;;;;5036381;28;20084;-65
2022/10/16 11:59:23;;;;;;;7.93;2.72;;;17.00;99.90;;;;;;5052687;28;20053;-66
2022/10/16 12:02:06;;;;;;;63.95;49.88;;;17.10;99.90;;;;;;5051829;28;20063;-71
2022/10/16 12:05:00;;;;;;;17.75;9.23;;;17.20;99.90;;;;;;5053611;28;20369;-64
2022/10/16 12:07:32;;;;;;;13.73;5.22;;;17.50;99.90;;;;;;5030629;28;20068;-64
2022/10/16 12:10:00;;;;;;;13.50;4.35;;;17.50;99.90;;;;;;5052449;28;20045;-64
2022/10/16 12:12:37;;;;;;;12.00;4.03;;;17.50;99.90;;;;;;5051486;28;20465;-65
2022/10/16 12:15:28;;;;;;;13.82;3.70;;;17.40;99.90;;;;;;5051266;28;20080;-63
2022/10/16 12:18:24;;;;;;;15.55;4.72;;;17.50;99.90;;;;;;5051618;28;20515;-64
2022/10/16 12:21:05;;;;;;;15.13;4.78;;;17.50;99.90;;;;;;5052419;28;20048;-64
2022/10/16 12:23:36;;;;;;;14.90;5.53;;;17.50;99.90;;;;;;5036088;28;20095;-64
2022/10/16 12:26:03;;;;;;;11.77;4.03;;;17.40;99.90;;;;;;5051519;28;20098;-64
2022/10/16 12:28:33;;;;;;;14.50;2.97;;;17.40;99.90;;;;;;5052233;28;20445;-64
2022/10/16 12:31:08;;;;;;;12.15;4.03;;;17.30;99.90;;;;;;5036354;28;20400;-64
2022/10/16 12:33:54;;;;;;;14.40;3.92;;;17.30;99.90;;;;;;5051782;28;20477;-64
2022/10/16 12:36:33;;;;;;;11.70;3.53;;;17.20;99.90;;;;;;5052049;28;20072;-64
2022/10/16 12:39:00;;;;;;;17.13;4.20;;;17.10;99.90;;;;;;5052188;28;20380;-64
2022/10/16 12:41:34;;;;;;;18.30;5.15;;;17.00;99.90;;;;;;5051692;28;20473;-63
2022/10/16 12:44:01;;;;;;;14.38;4.50;;;17.00;99.90;;;;;;5052869;28;20167;-63
2022/10/16 12:46:32;;;;;;;15.88;4.63;;;16.90;99.90;;;;;;5036194;28;20049;-64
2022/10/16 12:49:15;;;;;;;15.23;4.28;;;16.90;99.90;;;;;;5052878;28;20416;-63
2022/10/16 12:51:42;;;;;;;14.45;3.67;;;16.80;99.90;;;;;;5052902;28;20044;-64
2022/10/16 12:54:19;;;;;;;12.68;4.95;;;16.80;99.90;;;;;;5052110;28;20439;-64
2022/10/16 12:57:01;;;;;;;19.00;5.13;;;16.80;99.90;;;;;;5051811;28;20132;-64